createdAt,value
2023-09-21T00:01:14.449Z,6.80
2023-09-21T00:03:42.025Z,10.18
2023-09-21T00:06:10.576Z,8.15
2023-09-21T00:08:37.946Z,5.60
2023-09-21T00:11:08.440Z,9.52
2023-09-21T00:13:40.490Z,6.78
2023-09-21T00:16:12.832Z,7.00
2023-09-21T00:18:44.811Z,6.85
2023-09-21T00:21:14.262Z,8.23
2023-09-21T00:23:42.596Z,8.48
2023-09-21T00:26:10.667Z,8.20
2023-09-21T00:28:38.310Z,7.60
2023-09-21T00:31:06.146Z,8.18
2023-09-21T00:33:34.364Z,7.32
2023-09-21T00:36:10.918Z,7.80
2023-09-21T00:38:38.809Z,8.88
2023-09-21T00:41:06.229Z,7.53
2023-09-21T00:43:34.226Z,8.52
2023-09-21T00:46:02.903Z,9.15
2023-09-21T00:48:40.857Z,8.70
2023-09-21T00:51:09.143Z,12.60
2023-09-21T00:53:37.537Z,9.70
2023-09-21T00:56:10.823Z,8.05
2023-09-21T00:58:38.364Z,9.00
2023-09-21T01:01:07.026Z,11.38
2023-09-21T01:03:39.141Z,8.77
2023-09-21T01:06:09.864Z,8.35
2023-09-21T01:08:37.094Z,10.98
2023-09-21T01:11:09.077Z,12.85
2023-09-21T01:13:37.428Z,10.18
2023-09-21T01:16:06.256Z,10.05
2023-09-21T01:18:34.396Z,10.65
2023-09-21T01:21:05.659Z,9.57
2023-09-21T01:23:36.537Z,10.10
2023-09-21T01:26:04.032Z,11.00
2023-09-21T01:28:31.757Z,9.13
2023-09-21T01:30:59.037Z,10.70
2023-09-21T01:33:26.602Z,10.23
2023-09-21T01:35:53.854Z,9.35
2023-09-21T01:38:21.359Z,10.15
2023-09-21T01:40:48.626Z,11.07
2023-09-21T01:43:18.124Z,11.98
2023-09-21T01:45:49.969Z,13.13
2023-09-21T01:48:21.668Z,8.93
2023-09-21T01:50:52.078Z,10.00
2023-09-21T01:53:21.401Z,7.65
2023-09-21T01:55:49.333Z,9.88
2023-09-21T01:58:17.708Z,8.15
2023-09-21T02:00:49.764Z,9.63
2023-09-21T02:03:19.389Z,8.27
2023-09-21T02:05:50.006Z,8.95
2023-09-21T02:08:18.402Z,9.85
2023-09-21T02:10:46.227Z,9.25
2023-09-21T02:13:13.596Z,10.38
2023-09-21T02:15:41.046Z,8.45
2023-09-21T02:18:10.927Z,9.60
2023-09-21T02:20:43.256Z,12.60
2023-09-21T02:23:10.498Z,8.98
2023-09-21T02:25:40.400Z,11.30
2023-09-21T02:28:12.995Z,11.05
2023-09-21T02:30:41.495Z,8.98
2023-09-21T02:33:09.419Z,10.43
2023-09-21T02:35:42.808Z,13.27
2023-09-21T02:38:10.990Z,11.05
2023-09-21T02:40:39.510Z,9.80
2023-09-21T02:43:09.321Z,8.95
2023-09-21T02:45:37.853Z,11.55
2023-09-21T02:48:06.301Z,8.90
2023-09-21T02:50:33.688Z,9.50
2023-09-21T02:53:08.186Z,9.98
2023-09-21T02:58:11.565Z,11.35
2023-09-21T03:00:46.821Z,10.25
2023-09-21T03:03:18.660Z,8.35
2023-09-21T03:05:47.815Z,12.50
2023-09-21T03:08:16.489Z,10.32
2023-09-21T03:10:49.211Z,13.32
2023-09-21T03:13:19.793Z,12.63
2023-09-21T03:15:51.908Z,10.07
2023-09-21T03:18:22.606Z,9.70
2023-09-21T03:20:53.960Z,10.00
2023-09-21T03:23:23.134Z,10.48
2023-09-21T03:25:55.338Z,10.65
2023-09-21T03:28:26.200Z,9.70
2023-09-21T03:30:55.643Z,11.02
2023-09-21T03:33:23.197Z,11.38
2023-09-21T03:35:50.898Z,11.48
2023-09-21T03:38:21.339Z,14.75
2023-09-21T03:40:51.869Z,11.20
2023-09-21T03:43:20.036Z,13.63
2023-09-21T03:45:47.832Z,14.93
2023-09-21T03:48:15.439Z,12.48
2023-09-21T03:50:44.031Z,15.50
2023-09-21T03:53:13.421Z,11.98
2023-09-21T03:55:41.361Z,13.43
2023-09-21T03:58:09.435Z,16.27
2023-09-21T04:00:38.922Z,13.13
2023-09-21T04:03:10.598Z,12.93
2023-09-21T04:05:45.632Z,17.77
2023-09-21T04:08:13.012Z,15.88
2023-09-21T04:10:41.755Z,17.40
2023-09-21T04:13:09.055Z,20.02
2023-09-21T04:15:36.357Z,16.08
2023-09-21T04:18:04.345Z,15.63
2023-09-21T04:20:36.363Z,16.80
2023-09-21T04:23:04.854Z,15.77
2023-09-21T04:25:34.092Z,15.50
2023-09-21T04:28:01.722Z,17.25
2023-09-21T04:30:29.502Z,20.30
2023-09-21T04:32:58.544Z,17.20
2023-09-21T04:35:28.595Z,18.25
2023-09-21T04:37:57.392Z,22.08
2023-09-21T04:40:27.694Z,21.33
2023-09-21T04:42:58.293Z,22.50
2023-09-21T04:45:28.282Z,23.23
2023-09-21T04:48:04.895Z,21.17
2023-09-21T04:50:36.356Z,23.92
2023-09-21T04:53:04.936Z,25.73
2023-09-21T04:55:33.355Z,31.40
2023-09-21T04:58:01.492Z,32.65
2023-09-21T05:00:30.921Z,29.75
2023-09-21T05:02:58.741Z,29.90
2023-09-21T05:05:28.515Z,32.13
2023-09-21T05:07:56.240Z,32.20
2023-09-21T05:10:23.489Z,29.88
2023-09-21T05:12:53.577Z,32.35
2023-09-21T05:15:21.076Z,33.58
2023-09-21T05:17:48.388Z,32.88
2023-09-21T05:20:16.447Z,35.38
2023-09-21T05:22:44.397Z,27.30
2023-09-21T05:25:11.959Z,27.90
2023-09-21T05:27:40.133Z,28.50
2023-09-21T05:30:10.511Z,26.08
2023-09-21T05:32:38.947Z,32.50
2023-09-21T05:35:07.783Z,26.90
2023-09-21T05:37:38.171Z,25.00
2023-09-21T05:40:07.859Z,19.25
2023-09-21T05:42:36.490Z,20.92
2023-09-21T05:45:04.584Z,20.35
2023-09-21T05:47:36.627Z,19.70
2023-09-21T05:50:06.932Z,17.65
2023-09-21T05:52:36.557Z,22.45
2023-09-21T05:55:04.540Z,17.42
2023-09-21T05:57:49.207Z,16.42
2023-09-21T06:00:19.156Z,16.08
2023-09-21T06:02:46.621Z,16.30
2023-09-21T06:05:14.065Z,16.38
2023-09-21T06:07:41.327Z,18.63
2023-09-21T06:10:08.928Z,15.15
2023-09-21T06:12:36.200Z,11.35
2023-09-21T06:15:07.372Z,12.25
2023-09-21T06:17:35.650Z,14.52
2023-09-21T06:20:04.578Z,12.15
2023-09-21T06:22:33.052Z,10.93
2023-09-21T06:25:03.647Z,18.25
2023-09-21T06:27:31.985Z,12.93
2023-09-21T06:29:59.846Z,10.15
2023-09-21T06:32:27.401Z,19.52
2023-09-21T06:34:54.918Z,10.15
2023-09-21T06:37:23.616Z,14.52
2023-09-21T06:39:50.823Z,9.95
2023-09-21T06:42:18.173Z,14.30
2023-09-21T06:44:45.495Z,11.00
2023-09-21T06:47:14.339Z,8.30
2023-09-21T06:49:41.691Z,11.60
2023-09-21T06:52:09.215Z,11.60
2023-09-21T06:54:39.636Z,12.45
2023-09-21T06:57:07.699Z,12.38
2023-09-21T06:59:39.976Z,9.70
2023-09-21T07:02:07.906Z,13.23
2023-09-21T07:04:35.968Z,12.73
2023-09-21T07:07:07.415Z,13.73
2023-09-21T07:09:38.751Z,14.73
2023-09-21T07:12:07.563Z,12.30
2023-09-21T07:14:37.393Z,12.18
2023-09-21T07:17:06.794Z,12.48
2023-09-21T07:19:36.383Z,15.10
2023-09-21T07:22:04.398Z,16.15
2023-09-21T07:24:32.494Z,14.93
2023-09-21T07:27:00.148Z,12.35
2023-09-21T07:29:27.924Z,13.63
2023-09-21T07:31:55.543Z,13.13
2023-09-21T07:34:23.009Z,15.23
2023-09-21T07:36:50.778Z,13.60
2023-09-21T07:39:18.572Z,11.07
2023-09-21T07:41:48.292Z,12.45
2023-09-21T07:44:18.080Z,13.80
2023-09-21T07:46:45.722Z,17.13
2023-09-21T07:49:14.825Z,10.85
2023-09-21T07:51:42.289Z,10.18
2023-09-21T07:54:09.592Z,10.50
2023-09-21T07:56:43.050Z,14.82
2023-09-21T07:59:13.299Z,10.88
2023-09-21T08:01:41.916Z,12.02
2023-09-21T08:04:09.356Z,12.35
2023-09-21T08:06:37.982Z,9.18
2023-09-21T08:09:12.521Z,16.80
2023-09-21T08:11:46.729Z,10.10
2023-09-21T08:14:14.753Z,9.63
2023-09-21T08:16:43.031Z,12.68
2023-09-21T08:19:10.716Z,15.20
2023-09-21T08:21:38.389Z,10.85
2023-09-21T08:24:06.087Z,13.80
2023-09-21T08:26:35.229Z,11.80
2023-09-21T08:29:02.866Z,14.23
2023-09-21T08:31:30.535Z,8.77
2023-09-21T08:33:58.915Z,7.57
2023-09-21T08:36:27.423Z,5.63
2023-09-21T08:38:55.259Z,9.88
2023-09-21T08:41:23.093Z,9.90
2023-09-21T08:43:50.386Z,10.13
2023-09-21T08:46:17.955Z,7.15
2023-09-21T08:48:45.819Z,8.20
2023-09-21T08:51:16.494Z,7.38
2023-09-21T08:53:44.098Z,12.00
2023-09-21T08:56:11.466Z,11.65
2023-09-21T08:58:42.025Z,8.55
2023-09-21T09:01:10.247Z,5.80
2023-09-21T09:03:37.881Z,6.82
2023-09-21T09:06:05.936Z,8.98
2023-09-21T09:08:33.711Z,7.88
2023-09-21T09:11:01.386Z,6.55
2023-09-21T09:13:35.269Z,7.72
2023-09-21T09:16:02.802Z,6.22
2023-09-21T09:18:31.678Z,7.55
2023-09-21T09:21:00.627Z,8.65
2023-09-21T09:23:28.040Z,5.22
2023-09-21T09:25:56.546Z,9.60
2023-09-21T09:28:24.181Z,8.00
2023-09-21T09:30:53.588Z,8.65
2023-09-21T09:33:27.117Z,7.57
2023-09-21T09:35:55.173Z,6.93
2023-09-21T09:38:23.279Z,6.70
2023-09-21T09:40:50.828Z,5.82
2023-09-21T09:43:18.328Z,4.85
2023-09-21T09:45:48.067Z,7.22
2023-09-21T09:48:17.758Z,7.95
2023-09-21T09:50:48.349Z,7.43
2023-09-21T09:53:18.725Z,11.05
2023-09-21T09:55:46.270Z,9.45
2023-09-21T09:58:16.603Z,8.55
2023-09-21T10:00:46.555Z,7.28
2023-09-21T10:03:14.477Z,6.68
2023-09-21T10:05:43.382Z,4.15
2023-09-21T10:08:11.694Z,5.80
2023-09-21T10:10:45.901Z,6.40
2023-09-21T10:13:13.329Z,5.32
2023-09-21T10:15:44.793Z,8.07
2023-09-21T10:18:12.279Z,4.72
2023-09-21T10:20:39.963Z,5.28
2023-09-21T10:23:12.865Z,4.47
2023-09-21T10:25:42.878Z,4.30
2023-09-21T10:28:29.016Z,7.00
2023-09-21T10:30:57.564Z,9.27
2023-09-21T10:33:27.103Z,5.75
2023-09-21T10:35:54.764Z,5.97
2023-09-21T10:38:22.124Z,4.38
2023-09-21T10:40:49.425Z,4.00
2023-09-21T10:43:38.646Z,4.85
2023-09-21T10:46:19.242Z,4.82
2023-09-21T10:48:47.534Z,7.18
2023-09-21T10:51:15.467Z,3.90
2023-09-21T10:53:43.072Z,4.45
2023-09-21T10:56:10.285Z,6.22
2023-09-21T10:58:38.011Z,8.52
2023-09-21T11:01:07.307Z,8.38
2023-09-21T11:03:36.731Z,7.00
2023-09-21T11:06:04.577Z,4.70
2023-09-21T11:08:32.828Z,3.75
2023-09-21T11:11:00.039Z,5.28
2023-09-21T11:13:28.374Z,4.03
2023-09-21T11:15:56.424Z,17.73
2023-09-21T11:18:23.753Z,4.30
2023-09-21T11:20:51.384Z,9.82
2023-09-21T11:23:19.766Z,17.90
2023-09-21T11:25:51.363Z,5.30
2023-09-21T11:28:23.982Z,3.30
2023-09-21T11:30:52.541Z,5.75
2023-09-21T11:33:23.365Z,4.07
2023-09-21T11:35:50.764Z,9.18
2023-09-21T11:38:17.965Z,2.60
2023-09-21T11:40:45.310Z,4.72
2023-09-21T11:43:15.677Z,5.90
2023-09-21T11:45:46.865Z,4.47
2023-09-21T11:48:14.929Z,7.95
2023-09-21T11:50:45.479Z,4.28
2023-09-21T11:53:13.691Z,8.15
2023-09-21T11:55:41.864Z,4.90
2023-09-21T11:58:16.883Z,3.45
2023-09-21T12:00:50.865Z,6.68
2023-09-21T12:03:22.304Z,3.58
2023-09-21T12:05:50.164Z,2.85
2023-09-21T12:08:21.112Z,3.40
2023-09-21T12:10:49.446Z,2.90
2023-09-21T12:13:17.705Z,2.47
2023-09-21T12:15:45.008Z,4.70
2023-09-21T12:18:14.574Z,5.88
2023-09-21T12:20:50.989Z,3.70
2023-09-21T12:23:18.947Z,4.50
2023-09-21T12:25:47.754Z,5.22
2023-09-21T12:28:15.506Z,3.45
2023-09-21T12:30:44.053Z,3.28
2023-09-21T12:33:34.919Z,4.25
2023-09-21T12:36:06.327Z,6.32
2023-09-21T12:38:34.787Z,3.33
2023-09-21T12:41:02.656Z,5.30
2023-09-21T12:43:30.482Z,3.28
2023-09-21T12:46:00.260Z,5.32
2023-09-21T12:48:27.924Z,3.75
2023-09-21T12:50:55.362Z,3.10
2023-09-21T12:53:24.188Z,7.78
2023-09-21T12:55:51.509Z,3.80
2023-09-21T12:58:19.074Z,3.55
2023-09-21T13:00:47.208Z,2.40
2023-09-21T13:03:15.224Z,3.00
2023-09-21T13:05:46.299Z,3.83
2023-09-21T13:08:14.574Z,3.45
2023-09-21T13:10:41.909Z,4.25
2023-09-21T13:13:12.932Z,5.85
2023-09-21T13:15:40.896Z,6.40
2023-09-21T13:18:09.748Z,3.75
2023-09-21T13:20:37.156Z,4.97
2023-09-21T13:23:06.449Z,5.47
2023-09-21T13:25:34.092Z,2.50
2023-09-21T13:28:02.043Z,3.33
2023-09-21T13:30:29.561Z,2.97
2023-09-21T13:32:57.030Z,4.35
2023-09-21T13:35:24.569Z,3.28
2023-09-21T13:37:52.004Z,5.63
2023-09-21T13:40:20.098Z,4.28
2023-09-21T13:42:47.988Z,6.80
2023-09-21T13:45:15.627Z,6.10
2023-09-21T13:47:43.358Z,2.92
2023-09-21T13:50:11.025Z,3.47
2023-09-21T13:52:38.808Z,7.15
2023-09-21T13:57:41.628Z,10.93
2023-09-21T14:00:11.589Z,2.05
2023-09-21T14:02:46.056Z,7.85
2023-09-21T14:05:14.292Z,6.60
2023-09-21T14:07:42.476Z,3.78
2023-09-21T14:10:10.645Z,5.38
2023-09-21T14:12:38.451Z,3.80
2023-09-21T14:15:07.040Z,5.07
2023-09-21T14:17:36.794Z,7.45
2023-09-21T14:20:06.302Z,6.60
2023-09-21T14:22:33.691Z,3.15
2023-09-21T14:25:01.309Z,7.40
2023-09-21T14:27:29.073Z,4.65
2023-09-21T14:29:56.424Z,5.03
2023-09-21T14:32:23.956Z,2.80
2023-09-21T14:34:51.923Z,6.43
2023-09-21T14:37:19.317Z,5.35
2023-09-21T14:39:46.640Z,4.13
2023-09-21T14:42:14.362Z,5.93
2023-09-21T14:44:41.672Z,4.70
2023-09-21T14:47:09.078Z,6.53
2023-09-21T14:49:36.353Z,3.88
2023-09-21T14:52:03.823Z,5.72
2023-09-21T14:54:31.626Z,5.38
2023-09-21T14:57:00.681Z,6.03
2023-09-21T14:59:27.999Z,4.82
2023-09-21T15:01:56.483Z,4.63
2023-09-21T15:04:24.354Z,6.72
2023-09-21T15:06:52.381Z,5.45
2023-09-21T15:09:20.952Z,5.32
2023-09-21T15:11:48.362Z,6.28
2023-09-21T15:14:16.115Z,5.55
2023-09-21T15:16:43.493Z,4.68
2023-09-21T15:19:10.932Z,4.78
2023-09-21T15:21:38.623Z,2.65
2023-09-21T15:24:07.523Z,6.90
2023-09-21T15:26:35.025Z,4.22
2023-09-21T15:29:02.824Z,3.60
2023-09-21T15:31:30.954Z,3.83
2023-09-21T15:33:59.326Z,4.07
2023-09-21T15:36:27.039Z,3.75
2023-09-21T15:38:54.608Z,3.50
2023-09-21T15:41:21.956Z,5.63
2023-09-21T15:43:50.485Z,4.22
2023-09-21T15:46:17.997Z,6.55
2023-09-21T15:48:45.930Z,4.53
2023-09-21T15:51:13.729Z,4.07
2023-09-21T15:53:41.826Z,5.10
2023-09-21T15:56:09.596Z,5.00
2023-09-21T15:58:37.241Z,4.93
2023-09-21T16:01:04.840Z,4.40
2023-09-21T16:03:32.782Z,4.45
2023-09-21T16:06:00.934Z,10.27
2023-09-21T16:08:28.616Z,4.88
2023-09-21T16:10:57.279Z,4.20
2023-09-21T16:13:24.611Z,5.32
2023-09-21T16:15:52.174Z,5.75
2023-09-21T16:18:19.943Z,4.30
2023-09-21T16:20:47.561Z,6.28
2023-09-21T16:23:14.798Z,3.97
2023-09-21T16:25:42.416Z,7.85
2023-09-21T16:28:10.664Z,5.10
2023-09-21T16:30:38.073Z,5.45
2023-09-21T16:33:05.818Z,6.57
2023-09-21T16:35:35.452Z,4.35
2023-09-21T16:38:04.864Z,3.80
2023-09-21T16:40:32.219Z,4.22
2023-09-21T16:43:00.132Z,6.43
2023-09-21T16:45:28.017Z,3.85
2023-09-21T16:47:55.662Z,6.55
2023-09-21T16:50:22.995Z,4.22
2023-09-21T16:52:50.514Z,8.23
2023-09-21T16:55:18.432Z,6.05
2023-09-21T16:57:45.669Z,5.78
2023-09-21T17:00:16.984Z,7.50
2023-09-21T17:02:44.727Z,8.45
2023-09-21T17:05:12.510Z,5.53
2023-09-21T17:07:40.013Z,5.35
2023-09-21T17:10:08.282Z,7.25
2023-09-21T17:12:36.197Z,8.02
2023-09-21T17:15:04.070Z,5.82
2023-09-21T17:17:31.630Z,5.40
2023-09-21T17:19:58.972Z,4.40
2023-09-21T17:22:28.050Z,7.47
2023-09-21T17:24:55.593Z,6.45
2023-09-21T17:27:23.002Z,6.78
2023-09-21T17:29:50.695Z,6.38
2023-09-21T17:32:18.344Z,9.73
2023-09-21T17:34:45.852Z,5.55
2023-09-21T17:37:13.335Z,5.47
2023-09-21T17:39:40.641Z,4.60
2023-09-21T17:42:08.102Z,5.75
2023-09-21T17:44:35.601Z,5.90
2023-09-21T17:47:06.461Z,4.57
2023-09-21T17:49:34.015Z,7.55
2023-09-21T17:52:04.429Z,5.25
2023-09-21T17:54:31.878Z,6.25
2023-09-21T17:56:59.257Z,4.82
2023-09-21T17:59:26.507Z,4.28
2023-09-21T18:01:54.009Z,5.53
2023-09-21T18:04:21.736Z,5.95
2023-09-21T18:06:49.961Z,5.97
2023-09-21T18:09:19.790Z,6.40
2023-09-21T18:11:47.074Z,4.18
2023-09-21T18:14:14.438Z,4.53
2023-09-21T18:16:42.851Z,7.38
2023-09-21T18:19:10.223Z,7.88
2023-09-21T18:21:38.321Z,4.15
2023-09-21T18:24:06.453Z,5.50
2023-09-21T18:26:33.793Z,6.03
2023-09-21T18:29:02.623Z,8.23
2023-09-21T18:31:30.165Z,9.15
2023-09-21T18:33:59.953Z,9.13
2023-09-21T18:36:27.339Z,10.15
2023-09-21T18:38:54.947Z,9.52
2023-09-21T18:41:22.217Z,10.25
2023-09-21T18:43:49.496Z,13.75
2023-09-21T18:46:18.004Z,19.02
2023-09-21T18:48:45.510Z,19.27
2023-09-21T18:51:16.061Z,18.75
2023-09-21T18:53:43.369Z,15.15
2023-09-21T18:56:10.671Z,17.33
2023-09-21T18:58:38.012Z,21.60
2023-09-21T19:01:05.340Z,22.23
2023-09-21T19:03:32.829Z,18.77
2023-09-21T19:06:00.316Z,19.20
2023-09-21T19:08:28.159Z,19.60
2023-09-21T19:10:55.430Z,20.83
2023-09-21T19:13:23.027Z,20.63
2023-09-21T19:15:50.714Z,21.23
2023-09-21T19:18:19.028Z,24.63
2023-09-21T19:20:47.061Z,19.75
2023-09-21T19:23:15.043Z,19.55
2023-09-21T19:25:42.303Z,23.42
2023-09-21T19:28:09.628Z,17.85
2023-09-21T19:30:37.685Z,22.60
2023-09-21T19:33:07.132Z,21.77
2023-09-21T19:35:34.829Z,18.40
2023-09-21T19:38:02.215Z,23.05
2023-09-21T19:40:29.931Z,15.23
2023-09-21T19:42:57.453Z,12.35
2023-09-21T19:45:25.182Z,15.77
2023-09-21T19:47:52.932Z,14.77
2023-09-21T19:50:20.654Z,13.32
2023-09-21T19:52:47.947Z,16.50
2023-09-21T19:55:15.327Z,12.43
2023-09-21T19:57:46.390Z,12.80
2023-09-21T20:00:17.566Z,11.95
2023-09-21T20:02:45.582Z,7.57
2023-09-21T20:05:13.260Z,8.18
2023-09-21T20:07:40.758Z,9.20
2023-09-21T20:10:08.839Z,11.43
2023-09-21T20:12:37.441Z,9.55
2023-09-21T20:15:05.408Z,15.30
2023-09-21T20:17:33.190Z,11.65
2023-09-21T20:20:01.089Z,22.70
2023-09-21T20:22:28.707Z,12.38
2023-09-21T20:24:56.186Z,11.65
2023-09-21T20:27:23.752Z,10.93
2023-09-21T20:29:51.716Z,9.13
2023-09-21T20:32:19.052Z,10.95
2023-09-21T20:34:46.375Z,7.47
2023-09-21T20:37:21.222Z,11.75
2023-09-21T20:39:49.198Z,12.20
2023-09-21T20:42:17.506Z,13.80
2023-09-21T20:44:45.538Z,10.68
2023-09-21T20:47:13.068Z,11.63
2023-09-21T20:49:40.422Z,9.20
2023-09-21T20:52:07.832Z,16.92
2023-09-21T20:54:35.105Z,19.05
2023-09-21T20:57:03.459Z,11.45
2023-09-21T20:59:31.089Z,11.13
2023-09-21T21:01:58.863Z,8.70
2023-09-21T21:04:26.332Z,7.15
2023-09-21T21:06:54.484Z,10.05
2023-09-21T21:09:21.754Z,8.45
2023-09-21T21:11:49.041Z,8.57
2023-09-21T21:14:16.673Z,8.48
2023-09-21T21:16:43.972Z,9.40
2023-09-21T21:19:11.350Z,8.50
2023-09-21T21:21:38.827Z,8.48
2023-09-21T21:24:06.338Z,7.88
2023-09-21T21:26:33.731Z,9.98
2023-09-21T21:29:01.101Z,11.40
2023-09-21T21:31:28.838Z,8.35
2023-09-21T21:33:56.227Z,7.53
2023-09-21T21:36:23.587Z,8.20
2023-09-21T21:38:51.054Z,7.88
2023-09-21T21:41:21.220Z,7.95
2023-09-21T21:43:48.548Z,8.85
2023-09-21T21:46:15.921Z,10.68
2023-09-21T21:48:43.733Z,7.75
2023-09-21T21:51:11.242Z,10.88
2023-09-21T21:53:38.507Z,7.43
2023-09-21T21:56:05.901Z,8.90
2023-09-21T21:58:33.473Z,10.43
2023-09-21T22:01:00.752Z,7.15
2023-09-21T22:03:28.393Z,10.32
2023-09-21T22:05:55.775Z,6.70
2023-09-21T22:08:23.005Z,9.43
2023-09-21T22:10:50.224Z,8.77
2023-09-21T22:13:17.876Z,8.57
2023-09-21T22:15:45.404Z,11.45
2023-09-21T22:18:14.622Z,9.23
2023-09-21T22:20:42.143Z,7.93
2023-09-21T22:23:09.810Z,8.82
2023-09-21T22:25:37.199Z,8.18
2023-09-21T22:28:05.174Z,8.40
2023-09-21T22:30:32.560Z,9.48
2023-09-21T22:33:00.086Z,8.15
2023-09-21T22:35:29.946Z,9.70
2023-09-21T22:38:08.361Z,8.18
2023-09-21T22:40:41.247Z,7.43
2023-09-21T22:43:10.547Z,8.05
2023-09-21T22:45:41.664Z,8.60
2023-09-21T22:48:09.503Z,9.45
2023-09-21T22:50:36.981Z,8.65
2023-09-21T22:53:04.573Z,7.97
2023-09-21T22:55:31.988Z,8.90
2023-09-21T22:57:59.421Z,9.35
2023-09-21T23:00:26.651Z,6.97
2023-09-21T23:02:54.646Z,8.95
2023-09-21T23:05:23.589Z,9.95
2023-09-21T23:07:50.920Z,8.57
2023-09-21T23:10:18.191Z,8.73
2023-09-21T23:12:45.881Z,8.27
2023-09-21T23:15:14.627Z,7.75
2023-09-21T23:17:42.815Z,9.82
2023-09-21T23:20:15.531Z,7.90
2023-09-21T23:22:46.702Z,8.48
2023-09-21T23:25:21.438Z,10.38
2023-09-21T23:30:18.341Z,8.43
2023-09-21T23:32:47.424Z,9.27
2023-09-21T23:35:15.610Z,8.25
2023-09-21T23:37:43.341Z,9.98
2023-09-21T23:40:12.895Z,14.15
2023-09-21T23:42:42.000Z,7.93
2023-09-21T23:45:15.095Z,11.25
2023-09-21T23:47:43.257Z,11.57
2023-09-21T23:50:13.568Z,9.93
2023-09-21T23:52:49.528Z,11.02
2023-09-21T23:55:17.436Z,11.23
2023-09-21T23:57:45.057Z,11.45
